Terminal Aerodrome Forecast
Issued by NWS Charleston, WV

Current Version | Previous Version | Graphics & Text | Print | Product List | Glossary On
Versions: 1 2 3 4 5 6 7 8 9 10 11 12 13 14 15 16 17 18 19 20 21 22 23 24
000
FTUS41 KRLX 010800 AAA
TAFEKN
TAF AMD
KEKN 010825Z 0108/0206 00000KT 6SM SHRA BR SCT020 OVC035
      TEMPO 0108/0110 5SM -SHRA BR BKN020
     FM011000 00000KT 4SM BR OVC007
     FM011400 23004KT 5SM BR OVC010
     FM011500 25006KT P6SM BKN018
     FM011800 25008KT P6SM VCTS BKN035CB
     FM012200 VRB02KT P6SM SCT040=

USA.gov is the U.S. government's official web portal to all federal, state and local government web resources and services.